Time;durP1;ratioP1;P1;durP2;ratioP2;P2;SDS_P1;SDS_P2;PMS_P1;PMS_P2;Temp;Humidity;BMP_temperature;BMP_pressure;BME280_temperature;BME280_humidity;BME280_pressure;Samples;Min_cycle;Max_cycle;Signal;HPM_P1;HPM_P2
2022/10/04 00:00:50;;;;;;;19.60;7.72;;;12.50;99.90;;;;;;5051524;28;20102;-46
2022/10/04 00:03:18;;;;;;;18.88;7.40;;;12.50;99.90;;;;;;5053901;28;20480;-50
2022/10/04 00:05:48;;;;;;;26.45;8.30;;;12.60;99.90;;;;;;5052387;28;20060;-46
2022/10/04 00:08:22;;;;;;;14.85;6.28;;;12.60;99.90;;;;;;5051209;28;20141;-49
2022/10/04 00:10:48;;;;;;;16.20;7.45;;;12.50;99.90;;;;;;5051061;28;20469;-48
2022/10/04 00:13:22;;;;;;;16.08;5.68;;;12.50;99.90;;;;;;5054914;28;20469;-42
2022/10/04 00:15:49;;;;;;;15.23;6.53;;;12.50;99.90;;;;;;5051181;28;20130;-49
2022/10/04 00:18:21;;;;;;;18.67;6.88;;;12.50;99.90;;;;;;5065436;28;20488;-42
2022/10/04 00:21:12;;;;;;;15.75;7.80;;;12.50;99.90;;;;;;5050610;28;20076;-49
2022/10/04 00:23:46;;;;;;;14.35;6.88;;;12.50;99.90;;;;;;5038636;28;20057;-49
2022/10/04 00:26:49;;;;;;;20.45;8.52;;;12.50;99.90;;;;;;5052904;28;20041;-47
2022/10/04 00:29:31;;;;;;;19.27;7.53;;;12.50;99.90;;;;;;5045535;28;20080;-50
2022/10/04 00:32:24;;;;;;;17.55;8.07;;;12.50;99.90;;;;;;5050862;28;20045;-46
2022/10/04 00:34:51;;;;;;;17.08;7.07;;;12.50;99.90;;;;;;5045985;28;20129;-48
2022/10/04 00:37:18;;;;;;;23.45;8.88;;;12.40;99.90;;;;;;5055904;28;20037;-49
2022/10/04 00:39:45;;;;;;;16.70;6.75;;;12.40;99.90;;;;;;5052863;28;20129;-48
2022/10/04 00:42:37;;;;;;;23.05;8.25;;;12.40;99.90;;;;;;5052018;28;20053;-49
2022/10/04 00:45:08;;;;;;;18.10;7.70;;;12.50;99.90;;;;;;5032460;28;20049;-49
2022/10/04 00:47:39;;;;;;;15.63;8.40;;;12.40;99.90;;;;;;5051473;28;20278;-45
2022/10/04 00:50:12;;;;;;;12.55;6.15;;;12.40;99.90;;;;;;5053817;28;20071;-50
2022/10/04 00:52:42;;;;;;;18.52;7.85;;;12.40;99.90;;;;;;5051904;28;20045;-47
2022/10/04 00:55:09;;;;;;;17.45;6.20;;;12.40;99.90;;;;;;5052558;28;20093;-48
2022/10/04 00:57:38;;;;;;;16.98;7.22;;;12.40;99.90;;;;;;5051776;28;20423;-47
2022/10/04 01:00:08;;;;;;;17.77;6.22;;;12.40;99.90;;;;;;5050639;28;20056;-47
2022/10/04 01:02:37;;;;;;;12.25;6.43;;;12.40;99.90;;;;;;5052020;28;20144;-48
2022/10/04 01:05:05;;;;;;;15.50;7.15;;;12.40;99.90;;;;;;5051238;28;20044;-50
2022/10/04 01:07:33;;;;;;;18.67;7.10;;;12.40;99.90;;;;;;5049495;28;20110;-47
2022/10/04 01:10:01;;;;;;;15.68;6.20;;;12.40;99.90;;;;;;5050639;28;20056;-45
2022/10/04 01:12:44;;;;;;;19.00;7.55;;;12.40;99.90;;;;;;5050392;28;20080;-45
2022/10/04 01:15:15;;;;;;;15.05;7.00;;;12.40;99.90;;;;;;5047812;28;20041;-44
2022/10/04 01:17:42;;;;;;;18.02;8.32;;;12.30;99.90;;;;;;5049937;28;20098;-48
2022/10/04 01:20:28;;;;;;;20.52;8.75;;;12.30;99.90;;;;;;5052027;28;20103;-46
2022/10/04 01:22:56;;;;;;;16.73;7.50;;;12.40;99.90;;;;;;5039866;28;20053;-47
2022/10/04 01:25:42;;;;;;;17.45;6.63;;;12.30;99.90;;;;;;5041496;28;20203;-45
2022/10/04 01:28:09;;;;;;;23.38;8.98;;;12.30;99.90;;;;;;5050107;28;20084;-45
2022/10/04 01:30:36;;;;;;;18.38;7.60;;;12.30;99.90;;;;;;5049982;28;20102;-44
2022/10/04 01:33:05;;;;;;;14.00;7.05;;;12.30;99.90;;;;;;5052387;28;20086;-49
2022/10/04 01:35:32;;;;;;;17.30;7.65;;;12.40;99.90;;;;;;5051178;28;20053;-48
2022/10/04 01:38:01;;;;;;;17.42;8.23;;;12.40;99.90;;;;;;5049201;28;20123;-44
2022/10/04 01:40:30;;;;;;;22.85;9.40;;;12.40;99.90;;;;;;5067592;28;20149;-47
2022/10/04 01:42:59;;;;;;;22.38;9.45;;;12.30;99.90;;;;;;5050851;28;20048;-44
2022/10/04 01:45:28;;;;;;;13.90;7.50;;;12.40;99.90;;;;;;5051078;28;20084;-48
2022/10/04 01:47:56;;;;;;;18.67;8.75;;;12.40;99.90;;;;;;5054197;28;20538;-48
2022/10/04 01:50:26;;;;;;;17.63;7.95;;;12.40;99.90;;;;;;5051258;28;20049;-45
2022/10/04 01:52:55;;;;;;;14.25;7.10;;;12.40;99.90;;;;;;5051120;28;20447;-51
2022/10/04 01:55:24;;;;;;;18.98;8.75;;;12.40;99.90;;;;;;5049962;28;20056;-49
2022/10/04 01:57:52;;;;;;;20.85;7.85;;;12.40;99.90;;;;;;5051343;28;20073;-49
2022/10/04 02:00:20;;;;;;;17.42;8.27;;;12.30;99.90;;;;;;5049675;28;20077;-47
2022/10/04 02:02:50;;;;;;;20.88;8.73;;;12.30;99.90;;;;;;5050895;28;20488;-48
2022/10/04 02:05:18;;;;;;;25.15;8.95;;;12.40;99.90;;;;;;5049624;28;20049;-46
2022/10/04 02:07:45;;;;;;;18.95;7.22;;;12.40;99.90;;;;;;5051504;28;20045;-46
2022/10/04 02:10:16;;;;;;;16.27;7.55;;;12.40;99.90;;;;;;5063412;28;20157;-44
2022/10/04 02:12:44;;;;;;;15.63;7.22;;;12.40;99.90;;;;;;5050192;28;20083;-45
2022/10/04 02:15:12;;;;;;;20.30;7.93;;;12.40;99.90;;;;;;5051866;28;20547;-46
2022/10/04 02:17:41;;;;;;;14.07;6.00;;;12.30;99.90;;;;;;5049739;28;20049;-47
2022/10/04 02:20:11;;;;;;;20.35;9.15;;;12.30;99.90;;;;;;5051141;28;20530;-49
2022/10/04 02:22:38;;;;;;;16.58;6.53;;;12.30;99.90;;;;;;5057236;28;20119;-49
2022/10/04 02:25:06;;;;;;;11.88;6.38;;;12.30;99.90;;;;;;5065073;28;20460;-49
2022/10/04 02:27:33;;;;;;;15.07;8.18;;;12.30;99.90;;;;;;5049560;28;20106;-43
2022/10/04 02:30:02;;;;;;;20.60;7.53;;;12.10;99.90;;;;;;5054527;28;20061;-51
2022/10/04 02:35:16;;;;;;;17.17;7.03;;;12.20;99.90;;;;;;5051226;28;20106;-49
2022/10/04 02:37:42;;;;;;;21.83;8.02;;;12.10;99.90;;;;;;5050927;28;20366;-46
2022/10/04 02:40:12;;;;;;;13.25;7.90;;;12.10;99.90;;;;;;5050930;28;20433;-43
2022/10/04 02:42:40;;;;;;;11.95;6.38;;;12.10;99.90;;;;;;5044768;28;20053;-49
2022/10/04 02:45:12;;;;;;;20.27;8.57;;;12.10;99.90;;;;;;5050072;28;20433;-46
2022/10/04 02:47:43;;;;;;;17.35;6.80;;;11.90;99.90;;;;;;5051887;28;20045;-48
2022/10/04 02:50:16;;;;;;;21.50;8.85;;;11.90;99.90;;;;;;5050541;28;20041;-49
2022/10/04 02:52:44;;;;;;;15.23;8.07;;;11.90;99.90;;;;;;5051211;28;20095;-42
2022/10/04 02:55:15;;;;;;;19.95;7.13;;;11.90;99.90;;;;;;5049744;28;20084;-49
2022/10/04 02:57:42;;;;;;;19.52;9.35;;;11.80;99.90;;;;;;5048094;28;20033;-48
2022/10/04 03:00:17;;;;;;;18.30;7.97;;;11.80;99.90;;;;;;5050158;28;20068;-41
2022/10/04 03:03:08;;;;;;;16.48;8.05;;;11.80;99.90;;;;;;5046473;28;20095;-48
2022/10/04 03:05:35;;;;;;;26.02;9.60;;;11.80;99.90;;;;;;5050697;28;20069;-50
2022/10/04 03:08:01;;;;;;;20.83;8.35;;;11.70;99.90;;;;;;5054597;28;20068;-50
2022/10/04 03:10:28;;;;;;;18.35;8.55;;;11.70;99.90;;;;;;5054920;28;20562;-45
2022/10/04 03:12:55;;;;;;;17.38;7.90;;;11.60;99.90;;;;;;5049957;28;20393;-46
2022/10/04 03:15:23;;;;;;;16.35;7.45;;;11.60;99.90;;;;;;5046282;28;20115;-48
2022/10/04 03:17:50;;;;;;;16.50;7.03;;;11.60;99.90;;;;;;5042595;28;20053;-50
2022/10/04 03:20:20;;;;;;;17.40;7.65;;;11.60;99.90;;;;;;5049299;28;20381;-50
2022/10/04 03:22:48;;;;;;;22.27;9.50;;;11.50;99.90;;;;;;5066584;28;20049;-48
2022/10/04 03:25:18;;;;;;;22.98;8.27;;;11.50;99.90;;;;;;5050921;28;20048;-50
2022/10/04 03:27:46;;;;;;;19.42;9.18;;;11.50;99.90;;;;;;5052935;28;20107;-53
2022/10/04 03:30:13;;;;;;;17.20;8.20;;;11.50;99.90;;;;;;5053008;28;20037;-44
2022/10/04 03:32:41;;;;;;;21.40;9.02;;;11.50;99.90;;;;;;5053606;28;20543;-46
2022/10/04 03:35:16;;;;;;;19.73;8.75;;;11.40;99.90;;;;;;5052726;28;20087;-44
2022/10/04 03:37:43;;;;;;;23.15;9.23;;;11.40;99.90;;;;;;5049759;28;20040;-48
2022/10/04 03:40:10;;;;;;;19.85;9.07;;;11.40;99.90;;;;;;5053930;28;20083;-51
2022/10/04 03:42:37;;;;;;;16.10;8.75;;;11.30;99.90;;;;;;5052391;28;20431;-49
2022/10/04 03:45:06;;;;;;;18.10;8.15;;;11.30;99.90;;;;;;5052019;28;20077;-49
2022/10/04 03:47:35;;;;;;;19.88;8.88;;;11.30;99.90;;;;;;5051793;28;20080;-49
2022/10/04 03:50:06;;;;;;;17.17;8.73;;;11.20;99.90;;;;;;5057287;28;20099;-43
2022/10/04 03:52:33;;;;;;;16.15;7.28;;;11.20;99.90;;;;;;5049168;28;20150;-46
2022/10/04 03:55:02;;;;;;;14.93;7.38;;;11.20;99.90;;;;;;5048678;28;20677;-46
2022/10/04 03:57:28;;;;;;;19.98;8.57;;;11.20;99.90;;;;;;5036613;28;20430;-48
2022/10/04 03:59:55;;;;;;;22.60;8.90;;;11.10;99.90;;;;;;5051358;28;20106;-46
2022/10/04 04:02:29;;;;;;;15.95;8.85;;;11.10;99.90;;;;;;5051501;28;20420;-46
2022/10/04 04:05:00;;;;;;;20.55;10.02;;;11.10;99.90;;;;;;5053263;28;20455;-48
2022/10/04 04:07:29;;;;;;;20.23;9.52;;;11.00;99.90;;;;;;5055162;28;20094;-47
2022/10/04 04:09:59;;;;;;;21.73;8.50;;;11.00;99.90;;;;;;5052583;28;20122;-46
2022/10/04 04:12:32;;;;;;;21.90;9.63;;;11.00;99.90;;;;;;5067701;28;20075;-49
2022/10/04 04:15:00;;;;;;;21.45;8.27;;;11.00;99.90;;;;;;5053734;28;20037;-43
2022/10/04 04:17:38;;;;;;;18.38;11.30;;;10.90;99.90;;;;;;5046549;28;20061;-48
2022/10/04 04:20:07;;;;;;;23.15;10.35;;;10.90;99.90;;;;;;5051091;28;20047;-44
2022/10/04 04:22:36;;;;;;;16.70;8.23;;;10.90;99.90;;;;;;5051726;28;20465;-46
2022/10/04 04:25:07;;;;;;;19.83;10.20;;;10.90;99.90;;;;;;5052623;28;20041;-46
2022/10/04 04:27:35;;;;;;;28.45;10.93;;;10.90;99.90;;;;;;5052016;28;20045;-43
2022/10/04 04:30:01;;;;;;;14.85;8.30;;;10.80;99.90;;;;;;5051579;28;20102;-47
2022/10/04 04:32:31;;;;;;;24.35;11.30;;;10.80;99.90;;;;;;5052549;28;20114;-47
2022/10/04 04:34:59;;;;;;;21.00;11.10;;;10.80;99.90;;;;;;5050574;28;20052;-48
2022/10/04 04:37:26;;;;;;;22.83;10.73;;;10.80;99.90;;;;;;5053764;28;20106;-47
2022/10/04 04:39:55;;;;;;;21.83;11.07;;;10.80;99.90;;;;;;5051444;28;20041;-45
2022/10/04 04:42:31;;;;;;;21.77;12.18;;;10.80;99.90;;;;;;5051189;28;20045;-46
2022/10/04 04:45:00;;;;;;;20.35;10.60;;;10.70;99.90;;;;;;5050845;28;20059;-47
2022/10/04 04:47:29;;;;;;;27.85;12.55;;;10.70;99.90;;;;;;5064298;28;20063;-50
2022/10/04 04:49:56;;;;;;;23.13;11.27;;;10.70;99.90;;;;;;5049997;28;20068;-46
2022/10/04 04:52:25;;;;;;;27.67;13.40;;;10.70;99.90;;;;;;5049187;28;20083;-44
2022/10/04 04:54:53;;;;;;;31.38;14.68;;;10.70;99.90;;;;;;5056010;28;20048;-48
2022/10/04 04:57:20;;;;;;;26.55;13.80;;;10.70;99.90;;;;;;5058829;28;20451;-50
2022/10/04 04:59:48;;;;;;;20.92;11.32;;;10.60;99.90;;;;;;5052741;28;20053;-48
2022/10/04 05:02:28;;;;;;;27.10;13.50;;;10.60;99.90;;;;;;5049256;28;20048;-48
2022/10/04 05:05:12;;;;;;;23.58;11.63;;;10.60;99.90;;;;;;5051542;28;20056;-50
2022/10/04 05:07:41;;;;;;;17.80;9.48;;;10.60;99.90;;;;;;5056006;28;20064;-49
2022/10/04 05:10:31;;;;;;;22.73;12.70;;;10.60;99.90;;;;;;5053571;28;20147;-44
2022/10/04 05:12:59;;;;;;;32.15;14.85;;;10.60;99.90;;;;;;5065742;28;20048;-49
2022/10/04 05:15:26;;;;;;;16.83;11.68;;;10.50;99.90;;;;;;5066414;28;20128;-45
2022/10/04 05:17:53;;;;;;;25.23;14.82;;;10.60;99.90;;;;;;5055346;28;20048;-49
2022/10/04 05:20:20;;;;;;;20.73;11.25;;;10.50;99.90;;;;;;5049647;28;20080;-50
2022/10/04 05:22:48;;;;;;;26.27;13.00;;;10.50;99.90;;;;;;5051657;28;20128;-49
2022/10/04 05:25:28;;;;;;;23.05;12.70;;;10.50;99.90;;;;;;5051776;28;20056;-46
2022/10/04 05:27:55;;;;;;;17.35;9.65;;;10.50;99.90;;;;;;5047665;28;20094;-45
2022/10/04 05:30:32;;;;;;;20.67;11.30;;;10.50;99.90;;;;;;5053148;28;20041;-48
2022/10/04 05:33:00;;;;;;;23.13;12.82;;;10.40;99.90;;;;;;5050057;28;20049;-47
2022/10/04 05:35:28;;;;;;;36.03;15.32;;;10.40;99.90;;;;;;5049583;28;20069;-49
2022/10/04 05:38:01;;;;;;;31.73;15.13;;;10.40;99.90;;;;;;5059429;28;20231;-48
2022/10/04 05:40:35;;;;;;;22.75;10.95;;;10.40;99.90;;;;;;5056102;28;20052;-48
2022/10/04 05:43:02;;;;;;;28.00;14.68;;;10.40;99.90;;;;;;5050748;28;20084;-48
2022/10/04 05:45:30;;;;;;;29.40;13.38;;;10.40;99.90;;;;;;5049903;28;20079;-49
2022/10/04 05:47:58;;;;;;;27.50;15.30;;;10.40;99.90;;;;;;5059175;28;20537;-46
2022/10/04 05:50:29;;;;;;;24.65;13.45;;;10.40;99.90;;;;;;5049421;28;21379;-46
2022/10/04 05:53:09;;;;;;;21.60;12.38;;;10.40;99.90;;;;;;5051500;28;20438;-42
2022/10/04 05:55:38;;;;;;;24.75;13.88;;;10.40;99.90;;;;;;5037926;28;20289;-46
2022/10/04 05:58:18;;;;;;;19.55;12.60;;;10.30;99.90;;;;;;5047737;28;20456;-42
2022/10/04 06:00:50;;;;;;;24.25;12.75;;;10.30;99.90;;;;;;5051207;28;20056;-48
2022/10/04 06:03:38;;;;;;;25.58;14.05;;;10.30;99.90;;;;;;5040642;28;20089;-46
2022/10/04 06:06:08;;;;;;;26.90;15.18;;;10.30;99.90;;;;;;5055443;28;20045;-47
2022/10/04 06:08:43;;;;;;;20.15;11.27;;;10.30;99.90;;;;;;5046794;28;20124;-45
2022/10/04 06:11:17;;;;;;;27.10;14.40;;;10.30;99.90;;;;;;5039786;28;20048;-49
2022/10/04 06:14:00;;;;;;;26.45;13.95;;;10.30;99.90;;;;;;5062248;28;20102;-48
2022/10/04 06:16:34;;;;;;;34.42;14.57;;;10.30;99.90;;;;;;5054899;28;20136;-49
2022/10/04 06:19:31;;;;;;;26.95;14.63;;;10.30;99.90;;;;;;5051279;28;20041;-47
2022/10/04 06:22:06;;;;;;;28.27;15.40;;;10.30;99.90;;;;;;4981656;28;22718;-48
2022/10/04 06:24:35;;;;;;;28.70;15.65;;;10.30;99.90;;;;;;5045057;28;20032;-48
2022/10/04 06:27:09;;;;;;;26.95;16.83;;;10.30;99.90;;;;;;5053374;28;20116;-47
2022/10/04 06:29:38;;;;;;;29.80;16.48;;;10.30;99.90;;;;;;5046629;28;20043;-50
2022/10/04 06:32:31;;;;;;;29.55;15.63;;;10.30;99.90;;;;;;5051804;28;20076;-43
2022/10/04 06:35:15;;;;;;;36.88;18.27;;;10.40;99.90;;;;;;5050655;28;20045;-44
2022/10/04 06:38:11;;;;;;;37.05;17.88;;;10.30;99.90;;;;;;5041105;28;20167;-48
2022/10/04 06:41:06;;;;;;;25.40;18.10;;;10.40;99.90;;;;;;5048837;28;20092;-45
2022/10/04 06:43:45;;;;;;;31.65;19.67;;;10.30;99.90;;;;;;5053078;28;20045;-47
2022/10/04 06:46:15;;;;;;;32.50;18.63;;;10.40;99.90;;;;;;5049303;28;20499;-49
2022/10/04 06:48:58;;;;;;;30.17;18.52;;;10.40;99.90;;;;;;5065071;28;20048;-44
2022/10/04 06:51:43;;;;;;;31.75;19.08;;;10.40;99.90;;;;;;5057543;28;20033;-50
2022/10/04 06:54:19;;;;;;;30.98;20.30;;;10.50;99.90;;;;;;5046802;28;20134;-46
2022/10/04 06:56:54;;;;;;;29.20;19.55;;;10.50;99.90;;;;;;5039001;28;20063;-48
2022/10/04 06:59:38;;;;;;;39.33;21.45;;;10.60;99.90;;;;;;5051265;28;20560;-46
2022/10/04 07:02:06;;;;;;;30.98;19.40;;;10.70;99.90;;;;;;5053573;28;20084;-48
2022/10/04 07:04:36;;;;;;;39.25;20.83;;;10.80;99.90;;;;;;5052380;28;20431;-44
2022/10/04 07:07:33;;;;;;;38.28;21.63;;;11.00;99.90;;;;;;5050717;28;20053;-49
2022/10/04 07:10:03;;;;;;;35.33;20.83;;;11.10;99.90;;;;;;5040152;28;20049;-48
2022/10/04 07:12:31;;;;;;;39.35;21.90;;;11.30;99.90;;;;;;5054825;28;20059;-49
2022/10/04 07:15:00;;;;;;;32.58;21.40;;;11.40;99.90;;;;;;5053673;28;20127;-45
2022/10/04 07:17:30;;;;;;;34.05;19.90;;;11.50;99.90;;;;;;5041889;28;20482;-45
2022/10/04 07:19:57;;;;;;;36.78;19.17;;;11.60;99.90;;;;;;5054685;28;20041;-45
2022/10/04 07:22:27;;;;;;;27.75;18.85;;;11.60;99.90;;;;;;5054189;28;20104;-48
2022/10/04 07:25:01;;;;;;;31.20;18.40;;;11.70;99.90;;;;;;5053689;28;20041;-44
2022/10/04 07:27:30;;;;;;;31.95;20.20;;;11.70;99.90;;;;;;5055064;28;20055;-49
2022/10/04 07:29:58;;;;;;;28.63;18.55;;;11.80;99.90;;;;;;5053837;28;20091;-50
2022/10/04 07:32:26;;;;;;;31.17;18.48;;;11.80;99.90;;;;;;5054860;28;20420;-44
2022/10/04 07:34:57;;;;;;;31.48;19.05;;;11.80;99.90;;;;;;5053912;28;20129;-46
2022/10/04 07:37:24;;;;;;;28.15;19.13;;;11.70;99.90;;;;;;5054635;28;20463;-47
2022/10/04 07:39:52;;;;;;;29.00;20.13;;;11.80;99.90;;;;;;5053986;28;20095;-46
2022/10/04 07:42:23;;;;;;;34.15;19.23;;;11.80;99.90;;;;;;5053932;28;20048;-45
2022/10/04 07:44:58;;;;;;;36.28;19.60;;;11.80;99.90;;;;;;5053999;28;20134;-45
2022/10/04 07:47:26;;;;;;;26.92;18.45;;;11.90;99.90;;;;;;5053057;28;20115;-41
2022/10/04 07:49:53;;;;;;;30.00;18.55;;;12.10;99.90;;;;;;5053206;28;20045;-50
2022/10/04 07:52:37;;;;;;;34.25;18.55;;;12.30;99.90;;;;;;5053143;28;20124;-46
2022/10/04 07:55:09;;;;;;;28.25;18.65;;;12.50;99.90;;;;;;5053514;28;20076;-45
2022/10/04 07:57:39;;;;;;;25.65;16.73;;;12.60;99.90;;;;;;5054203;28;20081;-45
2022/10/04 08:00:12;;;;;;;25.05;17.58;;;12.80;99.90;;;;;;5054301;28;20041;-45
2022/10/04 08:02:42;;;;;;;29.88;17.05;;;12.90;99.90;;;;;;5053897;28;20091;-47
2022/10/04 08:05:17;;;;;;;26.27;16.05;;;13.00;99.90;;;;;;5053159;28;20049;-46
2022/10/04 08:07:53;;;;;;;28.40;16.33;;;13.10;99.90;;;;;;5054209;28;20118;-49
2022/10/04 08:10:24;;;;;;;27.02;16.27;;;13.20;99.90;;;;;;5052710;28;20130;-49
2022/10/04 08:12:53;;;;;;;28.98;14.90;;;13.30;99.90;;;;;;5052427;28;20488;-48
2022/10/04 08:15:35;;;;;;;31.95;15.30;;;13.30;99.90;;;;;;5052918;28;20098;-50
2022/10/04 08:18:09;;;;;;;25.67;14.30;;;13.40;99.90;;;;;;5054063;28;20080;-47
2022/10/04 08:20:41;;;;;;;23.45;14.30;;;13.40;99.90;;;;;;5053050;28;20037;-48
2022/10/04 08:23:34;;;;;;;20.63;13.85;;;13.50;99.90;;;;;;5051958;28;20049;-41
2022/10/04 08:26:07;;;;;;;28.02;14.15;;;13.40;99.90;;;;;;5032896;28;20049;-49
2022/10/04 08:31:28;;;;;;;21.65;13.80;;;13.30;99.90;;;;;;5032417;28;20053;-48
2022/10/04 08:34:23;;;;;;;19.90;12.27;;;13.30;99.90;;;;;;5032120;28;20143;-47
2022/10/04 08:36:58;;;;;;;28.02;13.15;;;13.30;99.90;;;;;;5036904;28;20500;-48
2022/10/04 08:39:39;;;;;;;21.13;11.68;;;13.50;99.90;;;;;;5032323;28;20107;-47
2022/10/04 08:42:30;;;;;;;26.05;13.88;;;13.60;99.90;;;;;;5032397;28;20107;-45
2022/10/04 08:45:16;;;;;;;;;;;13.80;99.90;;;;;;5044531;28;20041;-42
2022/10/04 08:48:23;;;;;;;19.45;11.85;;;13.90;99.90;;;;;;5051260;28;19932;-46
2022/10/04 08:51:26;;;;;;;18.08;11.68;;;14.00;99.90;;;;;;5051606;28;20041;-48
2022/10/04 08:54:34;;;;;;;17.13;12.10;;;14.20;99.90;;;;;;5052429;28;20477;-47
2022/10/04 08:57:15;;;;;;;17.63;11.77;;;14.30;99.90;;;;;;5041731;28;20667;-46
2022/10/04 09:00:08;;;;;;;18.27;11.70;;;14.40;99.90;;;;;;5050715;28;20562;-48
2022/10/04 09:03:17;;;;;;;20.55;11.48;;;14.50;99.90;;;;;;5051829;28;20542;-44
2022/10/04 09:06:11;;;;;;;19.80;12.05;;;14.60;99.90;;;;;;5031353;28;20501;-48
2022/10/04 09:09:16;;;;;;;18.63;12.23;;;14.80;99.90;;;;;;5032502;28;20532;-46
2022/10/04 09:12:05;;;;;;;18.58;11.20;;;14.90;99.90;;;;;;5009834;28;20075;-48
2022/10/04 09:14:56;;;;;;;19.92;11.38;;;14.90;99.90;;;;;;5032813;28;20142;-47
2022/10/04 09:17:27;;;;;;;17.15;10.65;;;15.00;99.90;;;;;;5045054;28;20112;-46
2022/10/04 09:19:56;;;;;;;19.38;10.55;;;15.10;99.90;;;;;;5032665;28;20068;-49
2022/10/04 09:22:33;;;;;;;17.05;10.55;;;15.20;99.90;;;;;;5032148;28;20051;-48
2022/10/04 09:25:45;;;;;;;19.98;10.25;;;15.20;99.90;;;;;;5031500;28;20099;-48
2022/10/04 09:28:23;;;;;;;23.98;10.57;;;15.40;99.90;;;;;;5019914;28;20199;-44
2022/10/04 09:30:59;;;;;;;17.77;9.18;;;15.40;99.90;;;;;;5035538;28;20057;-46
2022/10/04 09:33:33;;;;;;;16.13;9.43;;;15.60;99.90;;;;;;5036803;28;20049;-46
2022/10/04 09:36:30;;;;;;;20.48;8.75;;;15.70;99.90;;;;;;5030517;28;20583;-50
2022/10/04 09:39:14;;;;;;;16.67;9.32;;;15.90;99.90;;;;;;5030502;28;20053;-48
2022/10/04 09:41:52;;;;;;;16.25;9.85;;;16.00;99.90;;;;;;5030588;28;20099;-45
2022/10/04 09:44:55;;;;;;;18.05;8.70;;;16.20;99.90;;;;;;5052147;28;20068;-47
2022/10/04 09:47:36;;;;;;;16.63;8.52;;;16.30;99.90;;;;;;5050028;28;20076;-47
2022/10/04 09:50:53;;;;;;;13.98;8.63;;;16.40;99.90;;;;;;5049946;28;20192;-47
2022/10/04 09:53:35;;;;;;;16.17;7.93;;;16.40;99.90;;;;;;5051894;28;20496;-49
2022/10/04 09:56:19;;;;;;;12.10;7.57;;;16.40;99.90;;;;;;5043013;28;20087;-46
2022/10/04 09:59:06;;;;;;;16.38;7.90;;;16.50;99.90;;;;;;5032180;28;20417;-50
2022/10/04 10:01:37;;;;;;;14.13;8.13;;;16.50;99.90;;;;;;5026371;28;20056;-48
2022/10/04 10:04:07;;;;;;;;;;;16.60;99.90;;;;;;5050212;28;20088;-45
2022/10/04 10:06:49;;;;;;;14.27;8.23;;;16.60;99.90;;;;;;5050654;28;19962;-48
2022/10/04 10:13:38;;;;;;;16.98;8.50;;;16.60;99.90;;;;;;5067687;28;20354;-43
2022/10/04 10:15:11;;;;;;;13.43;7.40;;;16.80;99.90;;;;;;5078409;28;20044;-44
2022/10/04 10:17:41;;;;;;;16.60;7.63;;;16.90;99.90;;;;;;5039282;28;20136;-42
2022/10/04 10:20:25;;;;;;;14.32;7.35;;;17.00;99.90;;;;;;5050220;28;20107;-45
2022/10/04 10:23:08;;;;;;;13.77;6.82;;;17.10;99.90;;;;;;5049249;28;20095;-46
2022/10/04 10:25:47;;;;;;;14.82;6.55;;;17.10;99.90;;;;;;5050103;28;20507;-43
2022/10/04 10:28:33;;;;;;;14.05;6.22;;;17.10;99.90;;;;;;5051731;28;20467;-43
2022/10/04 10:31:12;;;;;;;15.57;6.28;;;17.20;99.90;;;;;;5050117;28;20107;-43
2022/10/04 10:34:14;;;;;;;19.05;7.15;;;17.20;99.90;;;;;;5031759;28;20049;-45
2022/10/04 10:36:53;;;;;;;;;;;17.30;99.90;;;;;;5046529;28;20141;-48
2022/10/04 10:39:48;;;;;;;12.65;5.30;;;17.30;99.90;;;;;;5054870;28;19921;-42
2022/10/04 10:42:41;;;;;;;13.48;6.43;;;17.30;99.90;;;;;;5053833;28;20057;-44
2022/10/04 10:45:16;;;;;;;17.50;5.60;;;17.40;99.90;;;;;;5040136;28;20559;-45
2022/10/04 10:47:45;;;;;;;16.88;6.15;;;17.50;99.60;;;;;;5033365;28;20092;-42
2022/10/04 10:50:58;;;;;;;13.75;6.18;;;17.50;99.90;;;;;;5035133;28;20095;-44
2022/10/04 10:53:55;;;;;;;9.95;6.53;;;17.60;98.90;;;;;;5033646;28;20052;-44
2022/10/04 10:56:46;;;;;;;11.27;6.45;;;17.60;98.10;;;;;;5034277;28;20103;-43
2022/10/04 10:59:56;;;;;;;12.63;6.15;;;17.60;99.20;;;;;;5048440;28;20513;-45
2022/10/04 11:03:15;;;;;;;12.57;5.85;;;17.70;98.60;;;;;;5046026;28;20463;-42
2022/10/04 11:06:04;;;;;;;18.13;7.10;;;17.80;99.00;;;;;;4996421;28;20054;-44
2022/10/04 11:08:49;;;;;;;12.68;6.97;;;17.90;99.30;;;;;;5035171;28;20088;-42
2022/10/04 11:11:22;;;;;;;9.90;6.25;;;17.90;98.60;;;;;;5034375;28;20049;-46
2022/10/04 11:14:17;;;;;;;13.43;6.95;;;17.90;98.50;;;;;;5036273;28;20049;-43
2022/10/04 11:17:19;;;;;;;13.52;6.97;;;17.90;97.30;;;;;;5053782;28;20065;-43
2022/10/04 11:20:14;;;;;;;11.95;6.75;;;18.10;98.90;;;;;;5053557;28;20124;-45
2022/10/04 11:23:23;;;;;;;11.80;6.28;;;18.30;98.30;;;;;;5052160;28;20086;-43
2022/10/04 11:26:41;;;;;;;13.45;6.85;;;18.30;97.70;;;;;;5042011;28;20606;-49
2022/10/04 11:29:16;;;;;;;16.80;6.90;;;18.30;96.90;;;;;;4996364;28;20478;-49
2022/10/04 11:32:06;;;;;;;13.57;6.18;;;18.40;97.10;;;;;;4993806;28;20582;-47
2022/10/04 11:35:23;;;;;;;13.18;6.25;;;18.30;96.60;;;;;;5039765;28;20053;-45
2022/10/04 11:37:57;;;;;;;14.90;6.47;;;18.40;96.90;;;;;;5032096;28;20096;-46
2022/10/04 11:40:34;;;;;;;13.77;6.60;;;18.40;97.20;;;;;;5015727;28;20133;-44
2022/10/04 11:43:11;;;;;;;11.35;6.38;;;18.50;96.60;;;;;;5035205;28;20099;-44
2022/10/04 11:45:55;;;;;;;13.60;6.47;;;18.60;96.80;;;;;;5033995;28;20472;-46
2022/10/04 11:48:28;;;;;;;14.77;7.25;;;18.70;96.90;;;;;;5039351;28;20053;-43
2022/10/04 11:51:21;;;;;;;17.02;7.20;;;18.70;96.70;;;;;;5069591;28;20137;-44
2022/10/04 11:54:02;;;;;;;18.77;8.25;;;18.70;96.50;;;;;;5053999;28;20092;-44
2022/10/04 11:56:46;;;;;;;16.25;7.28;;;18.70;96.20;;;;;;5069827;28;20454;-45
2022/10/04 11:59:26;;;;;;;13.43;6.82;;;18.70;96.70;;;;;;5052615;28;20051;-36
2022/10/04 12:02:21;;;;;;;14.98;6.10;;;18.70;96.80;;;;;;5035550;28;20045;-46
2022/10/04 12:04:58;;;;;;;13.23;5.80;;;18.90;96.30;;;;;;5053017;28;20547;-44
2022/10/04 12:07:34;;;;;;;13.85;6.20;;;19.00;96.70;;;;;;5053607;28;20099;-44
2022/10/04 12:10:10;;;;;;;12.15;6.00;;;19.10;96.10;;;;;;5054541;28;20091;-48
2022/10/04 12:13:28;;;;;;;15.23;6.50;;;19.10;96.40;;;;;;5065909;28;20099;-45
2022/10/04 12:16:34;;;;;;;13.68;6.10;;;19.20;96.20;;;;;;5053666;28;20110;-44
2022/10/04 12:19:33;;;;;;;13.45;6.72;;;19.10;96.30;;;;;;5054512;28;20140;-48
2022/10/04 12:22:05;;;;;;;13.63;5.90;;;19.10;95.60;;;;;;5054652;28;20081;-48
2022/10/04 12:24:46;;;;;;;13.20;6.28;;;19.00;95.80;;;;;;5053122;28;20440;-44
2022/10/04 12:27:33;;;;;;;14.52;6.97;;;19.10;96.00;;;;;;5042928;28;20060;-48
2022/10/04 12:30:04;;;;;;;12.57;6.40;;;19.20;95.50;;;;;;5052712;28;20041;-47
2022/10/04 12:32:34;;;;;;;16.88;7.57;;;19.30;95.50;;;;;;5052721;28;20437;-49
2022/10/04 12:35:07;;;;;;;11.25;6.50;;;19.30;95.50;;;;;;5054261;28;20084;-48
2022/10/04 12:37:37;;;;;;;15.13;7.05;;;19.30;95.30;;;;;;5054163;28;20560;-45
2022/10/04 12:40:17;;;;;;;15.00;6.93;;;19.40;95.30;;;;;;5067300;28;20053;-50
2022/10/04 12:42:46;;;;;;;13.20;6.70;;;19.40;94.00;;;;;;5054196;28;20497;-49
2022/10/04 12:45:41;;;;;;;12.48;6.32;;;19.40;95.20;;;;;;5063074;28;20390;-50
2022/10/04 12:48:14;;;;;;;15.80;7.05;;;19.50;95.00;;;;;;5070373;28;20056;-45
2022/10/04 12:50:52;;;;;;;11.23;6.88;;;19.60;95.30;;;;;;5065643;28;20056;-47
2022/10/04 12:53:30;;;;;;;12.40;6.68;;;19.70;95.40;;;;;;5052850;28;20045;-48
2022/10/04 12:56:12;;;;;;;18.25;7.63;;;19.60;94.50;;;;;;5053650;28;20053;-45
2022/10/04 12:58:49;;;;;;;10.98;5.85;;;19.50;94.70;;;;;;5052208;28;20052;-49
2022/10/04 13:01:18;;;;;;;13.20;6.32;;;19.50;95.10;;;;;;5055021;28;20052;-49
2022/10/04 13:04:02;;;;;;;14.35;5.82;;;19.60;95.10;;;;;;5056924;28;20452;-48
2022/10/04 13:06:32;;;;;;;12.10;5.47;;;19.60;95.10;;;;;;5053601;28;20103;-43
2022/10/04 13:09:03;;;;;;;13.60;5.18;;;19.70;94.30;;;;;;5053417;28;20072;-49
2022/10/04 13:11:45;;;;;;;12.18;5.82;;;19.60;94.10;;;;;;5051769;28;20489;-46
2022/10/04 13:14:38;;;;;;;13.73;5.30;;;19.70;94.20;;;;;;5052671;28;20638;-45
2022/10/04 13:17:08;;;;;;;12.10;5.22;;;19.80;94.30;;;;;;5053456;28;20459;-46
2022/10/04 13:19:37;;;;;;;11.02;4.60;;;19.90;93.80;;;;;;5064256;28;20098;-46
2022/10/04 13:22:37;;;;;;;10.10;5.30;;;19.90;93.30;;;;;;5073194;28;20080;-48
2022/10/04 13:25:20;;;;;;;10.65;4.70;;;19.90;92.00;;;;;;5059071;28;20055;-49
2022/10/04 13:27:48;;;;;;;8.90;4.55;;;19.80;92.50;;;;;;5053328;28;20128;-49
2022/10/04 13:30:22;;;;;;;13.80;5.30;;;19.70;92.80;;;;;;5054715;28;20037;-45